createdAt,value
2022-08-21T00:53:42.591Z,95
2022-08-21T00:59:33.893Z,94
2022-08-21T01:02:07.780Z,95
2022-08-21T07:01:18.839Z,94
2022-08-21T07:17:09.410Z,93
2022-08-21T07:30:19.549Z,92
2022-08-21T07:37:15.803Z,91
2022-08-21T07:42:49.298Z,90
2022-08-21T07:45:14.298Z,89
2022-08-21T07:47:29.430Z,88
2022-08-21T07:50:25.299Z,87
2022-08-21T07:57:59.551Z,86
2022-08-21T08:02:54.061Z,87
2022-08-21T08:05:31.793Z,86
2022-08-21T08:10:03.801Z,87
2022-08-21T08:13:02.352Z,86
2022-08-21T08:18:15.801Z,85
2022-08-21T08:20:31.043Z,84
2022-08-21T08:22:31.790Z,83
2022-08-21T08:25:22.041Z,82
2022-08-21T08:27:58.049Z,81
2022-08-21T08:30:19.544Z,79
2022-08-21T08:35:23.672Z,78
2022-08-21T08:42:46.489Z,77
2022-08-21T08:48:37.820Z,76
2022-08-21T08:53:31.535Z,75
2022-08-21T08:55:36.790Z,73
2022-08-21T08:58:31.535Z,74
2022-08-21T09:03:37.791Z,73
2022-08-21T09:05:49.292Z,74
2022-08-21T09:08:50.296Z,73
2022-08-21T09:14:09.294Z,71
2022-08-21T09:16:27.035Z,72
2022-08-21T09:18:30.536Z,70
2022-08-21T09:28:36.056Z,68
2022-08-21T09:48:58.316Z,65
2022-08-21T09:54:03.784Z,64
2022-08-21T09:56:46.779Z,65
2022-08-21T09:59:15.522Z,66
2022-08-21T10:12:51.991Z,63
2022-08-21T10:16:43.923Z,63
2022-08-21T10:17:20.064Z,61
2022-08-21T10:20:01.306Z,62
2022-08-21T10:22:28.047Z,61
2022-08-21T10:27:42.533Z,62
2022-08-21T10:30:30.036Z,61
2022-08-21T10:33:03.291Z,60
2022-08-21T10:35:22.041Z,59
2022-08-21T10:37:26.286Z,58
2022-08-21T10:40:20.076Z,59
2022-08-21T10:47:35.037Z,61
2022-08-21T10:50:35.293Z,59
2022-08-21T10:53:21.039Z,58
2022-08-21T10:55:52.283Z,57
2022-08-21T10:58:09.284Z,56
2022-08-21T11:03:03.769Z,57
2022-08-21T11:05:41.544Z,58
2022-08-21T11:13:11.774Z,56
2022-08-21T11:18:25.268Z,55
2022-08-21T11:20:40.279Z,54
2022-08-21T11:22:41.037Z,53
2022-08-21T11:30:28.516Z,54
2022-08-21T11:32:35.529Z,53
2022-08-21T11:38:14.013Z,52
2022-08-21T11:40:41.771Z,51
2022-08-21T11:45:57.765Z,52
2022-08-21T11:48:46.265Z,51
2022-08-21T11:53:39.871Z,50
2022-08-21T11:55:45.052Z,51
2022-08-21T12:01:20.035Z,49
2022-08-21T12:03:46.026Z,48
2022-08-21T12:08:58.519Z,49
2022-08-21T12:18:38.270Z,50
2022-08-21T12:31:42.758Z,47
2022-08-21T12:36:58.007Z,46
2022-08-21T12:41:17.606Z,47
2022-08-21T12:46:43.259Z,48
2022-08-21T12:49:05.507Z,50
2022-08-21T12:51:13.252Z,49
2022-08-21T12:54:10.753Z,48
2022-08-21T12:56:53.754Z,47
2022-08-21T13:01:40.898Z,48
2022-08-21T13:14:31.134Z,47
2022-08-21T13:17:26.498Z,49
2022-08-21T13:27:48.860Z,48
2022-08-21T13:30:36.269Z,47
2022-08-21T13:33:13.015Z,46
2022-08-21T13:35:28.007Z,47
2022-08-21T13:40:26.004Z,46
2022-08-21T13:47:41.080Z,45
2022-08-21T13:53:26.924Z,46
2022-08-21T14:00:17.247Z,45
2022-08-21T14:03:09.252Z,46
2022-08-21T14:05:46.741Z,47
2022-08-21T14:08:09.988Z,48
2022-08-21T14:22:45.739Z,47
2022-08-21T14:25:36.154Z,45
2022-08-21T14:30:32.994Z,44
2022-08-21T14:48:50.483Z,43
2022-08-21T15:01:04.520Z,42
2022-08-21T15:29:07.648Z,41
2022-08-21T15:31:47.012Z,40
2022-08-21T15:42:10.728Z,42
2022-08-21T15:44:40.474Z,41
2022-08-21T15:46:57.475Z,42
2022-08-21T15:51:52.303Z,41
2022-08-21T15:56:53.323Z,40
2022-08-21T16:04:44.793Z,39
2022-08-21T16:07:14.660Z,38
2022-08-21T16:14:20.816Z,39
2022-08-21T16:16:56.761Z,38
2022-08-21T16:21:25.210Z,39
2022-08-21T16:24:21.966Z,42
2022-08-21T16:27:04.405Z,41
2022-08-21T16:29:31.966Z,40
2022-08-21T16:31:45.467Z,42
2022-08-21T16:34:48.460Z,43
2022-08-21T16:37:36.971Z,46
2022-08-21T16:42:30.992Z,49
2022-08-21T16:44:37.311Z,50
2022-08-21T16:47:30.962Z,49
2022-08-21T16:50:11.461Z,51
2022-08-21T16:52:37.483Z,54
2022-08-21T16:57:50.219Z,51
2022-08-21T17:00:36.978Z,47
2022-08-21T17:03:09.217Z,49
2022-08-21T17:07:33.097Z,50
2022-08-21T17:10:23.708Z,51
2022-08-21T17:15:26.857Z,54
2022-08-21T17:17:36.482Z,55
2022-08-21T17:20:35.700Z,57
2022-08-21T17:23:20.700Z,59
2022-08-21T17:28:07.200Z,60
2022-08-21T17:30:08.949Z,61
2022-08-21T17:33:00.398Z,62
2022-08-21T17:35:36.951Z,63
2022-08-21T17:37:59.444Z,64
2022-08-21T17:45:47.948Z,65
2022-08-21T17:50:30.955Z,66
2022-08-21T17:53:34.702Z,68
2022-08-21T17:56:24.212Z,69
2022-08-21T17:58:59.203Z,70
2022-08-21T18:01:19.775Z,71
2022-08-21T18:06:21.698Z,72
2022-08-21T18:09:02.945Z,73
2022-08-21T18:16:44.447Z,74
2022-08-21T18:22:05.192Z,75
2022-08-21T18:26:28.188Z,76
2022-08-21T18:34:26.839Z,77
2022-08-21T18:39:37.980Z,78
2022-08-21T18:42:28.911Z,79
2022-08-21T18:47:12.159Z,80
2022-08-21T18:54:45.197Z,81
2022-08-21T19:04:58.755Z,82
2022-08-21T19:14:34.585Z,83
2022-08-21T19:24:35.607Z,84
2022-08-21T19:31:58.689Z,85
2022-08-21T19:47:44.036Z,86
2022-08-21T19:58:02.693Z,87
2022-08-21T20:10:35.999Z,88
2022-08-21T21:03:36.756Z,89
2022-08-21T22:09:52.753Z,91
2022-08-21T22:50:32.837Z,92
2022-08-21T22:55:09.963Z,91
2022-08-21T23:05:47.436Z,92
2022-08-21T23:07:50.818Z,91
2022-08-21T23:48:34.910Z,92
